sensor_id;sensor_type;location;lat;lon;timestamp;P1;durP1;ratioP1;P2;durP2;ratioP2
3257;SDS011;1641;51.306;12.384;2023-05-10T00:01:53;5.53;;;3.63;;
3257;SDS011;1641;51.306;12.384;2023-05-10T00:04:19;4.72;;;4.00;;
3257;SDS011;1641;51.306;12.384;2023-05-10T00:06:44;4.18;;;3.33;;
3257;SDS011;1641;51.306;12.384;2023-05-10T00:09:09;8.00;;;3.97;;
3257;SDS011;1641;51.306;12.384;2023-05-10T00:11:35;4.18;;;3.75;;
3257;SDS011;1641;51.306;12.384;2023-05-10T00:14:00;5.25;;;3.83;;
3257;SDS011;1641;51.306;12.384;2023-05-10T00:16:25;7.25;;;3.50;;
3257;SDS011;1641;51.306;12.384;2023-05-10T00:18:50;5.82;;;3.90;;
3257;SDS011;1641;51.306;12.384;2023-05-10T00:21:16;7.90;;;4.15;;
3257;SDS011;1641;51.306;12.384;2023-05-10T00:23:41;4.35;;;3.75;;
3257;SDS011;1641;51.306;12.384;2023-05-10T00:26:06;5.20;;;3.83;;
3257;SDS011;1641;51.306;12.384;2023-05-10T00:28:31;5.50;;;3.60;;
3257;SDS011;1641;51.306;12.384;2023-05-10T00:30:56;6.13;;;3.63;;
3257;SDS011;1641;51.306;12.384;2023-05-10T00:33:22;5.47;;;3.75;;
3257;SDS011;1641;51.306;12.384;2023-05-10T00:35:47;10.32;;;3.45;;
3257;SDS011;1641;51.306;12.384;2023-05-10T00:38:12;16.40;;;3.70;;
3257;SDS011;1641;51.306;12.384;2023-05-10T00:40:38;8.48;;;3.35;;
3257;SDS011;1641;51.306;12.384;2023-05-10T00:43:03;5.32;;;4.00;;
3257;SDS011;1641;51.306;12.384;2023-05-10T00:45:29;4.68;;;3.63;;
3257;SDS011;1641;51.306;12.384;2023-05-10T00:47:57;4.53;;;3.80;;
3257;SDS011;1641;51.306;12.384;2023-05-10T00:50:24;4.03;;;3.50;;
3257;SDS011;1641;51.306;12.384;2023-05-10T00:52:50;3.60;;;3.22;;
3257;SDS011;1641;51.306;12.384;2023-05-10T00:55:16;10.02;;;4.00;;
3257;SDS011;1641;51.306;12.384;2023-05-10T00:57:42;3.28;;;2.95;;
3257;SDS011;1641;51.306;12.384;2023-05-10T01:00:08;4.50;;;3.40;;
3257;SDS011;1641;51.306;12.384;2023-05-10T01:02:37;5.75;;;3.72;;
3257;SDS011;1641;51.306;12.384;2023-05-10T01:05:03;3.90;;;3.50;;
3257;SDS011;1641;51.306;12.384;2023-05-10T01:07:28;4.60;;;3.20;;
3257;SDS011;1641;51.306;12.384;2023-05-10T01:09:54;4.05;;;2.97;;
3257;SDS011;1641;51.306;12.384;2023-05-10T01:12:20;4.20;;;3.47;;
3257;SDS011;1641;51.306;12.384;2023-05-10T01:14:45;6.63;;;3.60;;
3257;SDS011;1641;51.306;12.384;2023-05-10T01:17:11;3.65;;;3.22;;
3257;SDS011;1641;51.306;12.384;2023-05-10T01:19:37;4.10;;;3.10;;
3257;SDS011;1641;51.306;12.384;2023-05-10T01:22:11;5.00;;;3.63;;
3257;SDS011;1641;51.306;12.384;2023-05-10T01:27:47;3.38;;;3.08;;
3257;SDS011;1641;51.306;12.384;2023-05-10T01:33:23;4.03;;;3.25;;
3257;SDS011;1641;51.306;12.384;2023-05-10T01:36:16;4.13;;;3.53;;
3257;SDS011;1641;51.306;12.384;2023-05-10T01:41:48;3.90;;;3.47;;
3257;SDS011;1641;51.306;12.384;2023-05-10T01:44:20;4.95;;;3.08;;
3257;SDS011;1641;51.306;12.384;2023-05-10T01:47:09;4.55;;;3.70;;
3257;SDS011;1641;51.306;12.384;2023-05-10T01:49:47;5.30;;;3.75;;
3257;SDS011;1641;51.306;12.384;2023-05-10T01:52:16;5.57;;;3.15;;
3257;SDS011;1641;51.306;12.384;2023-05-10T01:54:50;6.22;;;3.42;;
3257;SDS011;1641;51.306;12.384;2023-05-10T01:57:20;3.47;;;3.10;;
3257;SDS011;1641;51.306;12.384;2023-05-10T01:59:51;4.90;;;3.25;;
3257;SDS011;1641;51.306;12.384;2023-05-10T02:02:18;4.03;;;3.55;;
3257;SDS011;1641;51.306;12.384;2023-05-10T02:04:45;6.95;;;3.42;;
3257;SDS011;1641;51.306;12.384;2023-05-10T02:07:12;3.67;;;3.25;;
3257;SDS011;1641;51.306;12.384;2023-05-10T02:09:39;5.25;;;3.58;;
3257;SDS011;1641;51.306;12.384;2023-05-10T02:12:06;5.90;;;3.92;;
3257;SDS011;1641;51.306;12.384;2023-05-10T02:14:34;3.28;;;2.95;;
3257;SDS011;1641;51.306;12.384;2023-05-10T02:17:01;14.45;;;3.22;;
3257;SDS011;1641;51.306;12.384;2023-05-10T02:19:28;6.07;;;3.83;;
3257;SDS011;1641;51.306;12.384;2023-05-10T02:21:55;5.63;;;3.70;;
3257;SDS011;1641;51.306;12.384;2023-05-10T02:24:22;5.20;;;3.35;;
3257;SDS011;1641;51.306;12.384;2023-05-10T02:26:49;4.18;;;3.78;;
3257;SDS011;1641;51.306;12.384;2023-05-10T02:29:18;3.83;;;3.45;;
3257;SDS011;1641;51.306;12.384;2023-05-10T02:31:44;4.53;;;3.72;;
3257;SDS011;1641;51.306;12.384;2023-05-10T02:34:10;5.25;;;4.10;;
3257;SDS011;1641;51.306;12.384;2023-05-10T02:36:37;8.82;;;5.82;;
3257;SDS011;1641;51.306;12.384;2023-05-10T02:39:04;5.35;;;4.57;;
3257;SDS011;1641;51.306;12.384;2023-05-10T02:41:34;5.10;;;3.30;;
3257;SDS011;1641;51.306;12.384;2023-05-10T02:44:01;5.35;;;4.00;;
3257;SDS011;1641;51.306;12.384;2023-05-10T02:46:27;5.80;;;3.75;;
3257;SDS011;1641;51.306;12.384;2023-05-10T02:48:53;4.25;;;3.63;;
3257;SDS011;1641;51.306;12.384;2023-05-10T02:51:18;4.63;;;3.45;;
3257;SDS011;1641;51.306;12.384;2023-05-10T02:53:46;3.67;;;3.33;;
3257;SDS011;1641;51.306;12.384;2023-05-10T02:56:15;5.88;;;3.50;;
3257;SDS011;1641;51.306;12.384;2023-05-10T02:58:48;5.53;;;3.47;;
3257;SDS011;1641;51.306;12.384;2023-05-10T03:01:13;5.50;;;3.20;;
3257;SDS011;1641;51.306;12.384;2023-05-10T03:03:38;6.18;;;3.83;;
3257;SDS011;1641;51.306;12.384;2023-05-10T03:06:04;9.77;;;4.05;;
3257;SDS011;1641;51.306;12.384;2023-05-10T03:08:29;6.78;;;2.97;;
3257;SDS011;1641;51.306;12.384;2023-05-10T03:11:12;4.15;;;3.75;;
3257;SDS011;1641;51.306;12.384;2023-05-10T03:13:53;3.80;;;3.40;;
3257;SDS011;1641;51.306;12.384;2023-05-10T03:16:23;5.80;;;3.83;;
3257;SDS011;1641;51.306;12.384;2023-05-10T03:18:54;4.38;;;3.63;;
3257;SDS011;1641;51.306;12.384;2023-05-10T03:21:27;6.82;;;4.00;;
3257;SDS011;1641;51.306;12.384;2023-05-10T03:23:58;8.10;;;4.18;;
3257;SDS011;1641;51.306;12.384;2023-05-10T03:26:28;4.55;;;4.15;;
3257;SDS011;1641;51.306;12.384;2023-05-10T03:28:54;5.18;;;4.30;;
3257;SDS011;1641;51.306;12.384;2023-05-10T03:31:23;4.55;;;4.15;;
3257;SDS011;1641;51.306;12.384;2023-05-10T03:33:49;7.25;;;4.00;;
3257;SDS011;1641;51.306;12.384;2023-05-10T03:36:16;4.55;;;3.78;;
3257;SDS011;1641;51.306;12.384;2023-05-10T03:38:42;5.45;;;4.53;;
3257;SDS011;1641;51.306;12.384;2023-05-10T03:41:07;3.97;;;3.58;;
3257;SDS011;1641;51.306;12.384;2023-05-10T03:43:33;5.10;;;4.40;;
3257;SDS011;1641;51.306;12.384;2023-05-10T03:45:58;8.02;;;4.20;;
3257;SDS011;1641;51.306;12.384;2023-05-10T03:48:23;8.45;;;4.82;;
3257;SDS011;1641;51.306;12.384;2023-05-10T03:50:48;5.03;;;4.10;;
3257;SDS011;1641;51.306;12.384;2023-05-10T03:53:14;4.20;;;3.47;;
3257;SDS011;1641;51.306;12.384;2023-05-10T03:55:40;6.00;;;3.75;;
3257;SDS011;1641;51.306;12.384;2023-05-10T03:58:05;4.70;;;3.80;;
3257;SDS011;1641;51.306;12.384;2023-05-10T04:00:30;4.65;;;3.63;;
3257;SDS011;1641;51.306;12.384;2023-05-10T04:02:56;4.80;;;3.72;;
3257;SDS011;1641;51.306;12.384;2023-05-10T04:05:21;5.45;;;4.07;;
3257;SDS011;1641;51.306;12.384;2023-05-10T04:07:47;4.50;;;3.70;;
3257;SDS011;1641;51.306;12.384;2023-05-10T04:10:14;4.25;;;3.45;;
3257;SDS011;1641;51.306;12.384;2023-05-10T04:12:41;4.78;;;3.35;;
3257;SDS011;1641;51.306;12.384;2023-05-10T04:15:06;3.72;;;3.35;;
3257;SDS011;1641;51.306;12.384;2023-05-10T04:17:32;4.38;;;3.60;;
3257;SDS011;1641;51.306;12.384;2023-05-10T04:19:57;4.53;;;3.55;;
3257;SDS011;1641;51.306;12.384;2023-05-10T04:22:22;5.22;;;3.50;;
3257;SDS011;1641;51.306;12.384;2023-05-10T04:24:48;4.68;;;3.75;;
3257;SDS011;1641;51.306;12.384;2023-05-10T04:27:13;4.85;;;3.60;;
3257;SDS011;1641;51.306;12.384;2023-05-10T04:29:38;4.50;;;3.65;;
3257;SDS011;1641;51.306;12.384;2023-05-10T04:32:04;6.03;;;3.58;;
3257;SDS011;1641;51.306;12.384;2023-05-10T04:34:29;8.43;;;3.95;;
3257;SDS011;1641;51.306;12.384;2023-05-10T04:36:54;5.38;;;3.22;;
3257;SDS011;1641;51.306;12.384;2023-05-10T04:39:20;6.60;;;3.70;;
3257;SDS011;1641;51.306;12.384;2023-05-10T04:41:45;4.97;;;3.67;;
3257;SDS011;1641;51.306;12.384;2023-05-10T04:44:10;5.53;;;3.20;;
3257;SDS011;1641;51.306;12.384;2023-05-10T04:46:35;4.70;;;3.70;;
3257;SDS011;1641;51.306;12.384;2023-05-10T04:49:01;4.95;;;3.20;;
3257;SDS011;1641;51.306;12.384;2023-05-10T04:51:26;4.70;;;3.15;;
3257;SDS011;1641;51.306;12.384;2023-05-10T04:53:51;4.88;;;3.17;;
3257;SDS011;1641;51.306;12.384;2023-05-10T04:56:17;3.35;;;3.05;;
3257;SDS011;1641;51.306;12.384;2023-05-10T04:58:42;3.10;;;2.53;;
3257;SDS011;1641;51.306;12.384;2023-05-10T05:01:07;6.15;;;3.28;;
3257;SDS011;1641;51.306;12.384;2023-05-10T05:03:33;3.47;;;3.03;;
3257;SDS011;1641;51.306;12.384;2023-05-10T05:05:58;6.13;;;3.25;;
3257;SDS011;1641;51.306;12.384;2023-05-10T05:08:24;7.00;;;3.63;;
3257;SDS011;1641;51.306;12.384;2023-05-10T05:10:49;7.88;;;3.80;;
3257;SDS011;1641;51.306;12.384;2023-05-10T05:13:15;6.80;;;3.47;;
3257;SDS011;1641;51.306;12.384;2023-05-10T05:15:40;7.43;;;3.33;;
3257;SDS011;1641;51.306;12.384;2023-05-10T05:18:05;9.57;;;3.45;;
3257;SDS011;1641;51.306;12.384;2023-05-10T05:20:34;4.20;;;2.60;;
3257;SDS011;1641;51.306;12.384;2023-05-10T05:23:00;5.80;;;3.45;;
3257;SDS011;1641;51.306;12.384;2023-05-10T05:25:25;4.63;;;2.97;;
3257;SDS011;1641;51.306;12.384;2023-05-10T05:27:50;4.80;;;3.03;;
3257;SDS011;1641;51.306;12.384;2023-05-10T05:30:16;5.20;;;3.28;;
3257;SDS011;1641;51.306;12.384;2023-05-10T05:32:41;4.50;;;3.33;;
3257;SDS011;1641;51.306;12.384;2023-05-10T05:35:07;4.13;;;3.10;;
3257;SDS011;1641;51.306;12.384;2023-05-10T05:37:32;7.80;;;3.55;;
3257;SDS011;1641;51.306;12.384;2023-05-10T05:39:58;4.68;;;2.80;;
3257;SDS011;1641;51.306;12.384;2023-05-10T05:42:23;3.70;;;3.10;;
3257;SDS011;1641;51.306;12.384;2023-05-10T05:44:51;4.15;;;2.78;;
3257;SDS011;1641;51.306;12.384;2023-05-10T05:47:17;5.88;;;3.15;;
3257;SDS011;1641;51.306;12.384;2023-05-10T05:49:42;3.33;;;2.42;;
3257;SDS011;1641;51.306;12.384;2023-05-10T05:52:10;5.13;;;2.97;;
3257;SDS011;1641;51.306;12.384;2023-05-10T05:54:41;6.88;;;3.40;;
3257;SDS011;1641;51.306;12.384;2023-05-10T05:57:07;3.67;;;3.30;;
3257;SDS011;1641;51.306;12.384;2023-05-10T05:59:32;5.78;;;4.10;;
3257;SDS011;1641;51.306;12.384;2023-05-10T06:01:57;3.60;;;3.30;;
3257;SDS011;1641;51.306;12.384;2023-05-10T06:04:26;3.72;;;3.25;;
3257;SDS011;1641;51.306;12.384;2023-05-10T06:06:51;4.97;;;3.17;;
3257;SDS011;1641;51.306;12.384;2023-05-10T06:09:17;4.28;;;3.28;;
3257;SDS011;1641;51.306;12.384;2023-05-10T06:11:42;5.25;;;3.47;;
3257;SDS011;1641;51.306;12.384;2023-05-10T06:14:08;5.50;;;3.08;;
3257;SDS011;1641;51.306;12.384;2023-05-10T06:16:33;5.80;;;3.30;;
3257;SDS011;1641;51.306;12.384;2023-05-10T06:18:59;5.22;;;3.72;;
3257;SDS011;1641;51.306;12.384;2023-05-10T06:21:25;4.70;;;3.08;;
3257;SDS011;1641;51.306;12.384;2023-05-10T06:23:53;5.10;;;3.40;;
3257;SDS011;1641;51.306;12.384;2023-05-10T06:26:18;7.20;;;3.28;;
3257;SDS011;1641;51.306;12.384;2023-05-10T06:28:44;5.47;;;3.85;;
3257;SDS011;1641;51.306;12.384;2023-05-10T06:31:12;4.75;;;3.47;;
3257;SDS011;1641;51.306;12.384;2023-05-10T06:33:37;4.28;;;2.97;;
3257;SDS011;1641;51.306;12.384;2023-05-10T06:36:02;3.90;;;3.13;;
3257;SDS011;1641;51.306;12.384;2023-05-10T06:38:28;8.05;;;3.35;;
3257;SDS011;1641;51.306;12.384;2023-05-10T06:40:54;5.20;;;2.88;;
3257;SDS011;1641;51.306;12.384;2023-05-10T06:43:19;7.55;;;2.92;;
3257;SDS011;1641;51.306;12.384;2023-05-10T06:45:44;4.50;;;3.00;;
3257;SDS011;1641;51.306;12.384;2023-05-10T06:48:10;5.65;;;3.20;;
3257;SDS011;1641;51.306;12.384;2023-05-10T06:50:35;5.15;;;3.15;;
3257;SDS011;1641;51.306;12.384;2023-05-10T06:53:01;3.35;;;2.42;;
3257;SDS011;1641;51.306;12.384;2023-05-10T06:55:27;10.55;;;4.47;;
3257;SDS011;1641;51.306;12.384;2023-05-10T06:57:52;4.95;;;2.88;;
3257;SDS011;1641;51.306;12.384;2023-05-10T07:00:19;6.22;;;3.38;;
3257;SDS011;1641;51.306;12.384;2023-05-10T07:02:44;7.40;;;2.95;;
3257;SDS011;1641;51.306;12.384;2023-05-10T07:05:13;4.25;;;2.38;;
3257;SDS011;1641;51.306;12.384;2023-05-10T07:07:39;7.82;;;3.08;;
3257;SDS011;1641;51.306;12.384;2023-05-10T07:10:04;4.20;;;2.83;;
3257;SDS011;1641;51.306;12.384;2023-05-10T07:12:30;6.35;;;2.80;;
3257;SDS011;1641;51.306;12.384;2023-05-10T07:14:56;5.18;;;2.67;;
3257;SDS011;1641;51.306;12.384;2023-05-10T07:17:21;4.10;;;2.50;;
3257;SDS011;1641;51.306;12.384;2023-05-10T07:19:47;9.85;;;2.88;;
3257;SDS011;1641;51.306;12.384;2023-05-10T07:22:12;4.10;;;2.40;;
3257;SDS011;1641;51.306;12.384;2023-05-10T07:24:37;4.53;;;2.75;;
3257;SDS011;1641;51.306;12.384;2023-05-10T07:27:03;4.88;;;2.70;;
3257;SDS011;1641;51.306;12.384;2023-05-10T07:29:29;8.20;;;2.70;;
3257;SDS011;1641;51.306;12.384;2023-05-10T07:31:54;6.18;;;2.63;;
3257;SDS011;1641;51.306;12.384;2023-05-10T07:34:19;2.85;;;2.63;;
3257;SDS011;1641;51.306;12.384;2023-05-10T07:36:45;6.95;;;3.20;;
3257;SDS011;1641;51.306;12.384;2023-05-10T07:39:10;4.95;;;2.50;;
3257;SDS011;1641;51.306;12.384;2023-05-10T07:41:36;12.10;;;3.17;;
3257;SDS011;1641;51.306;12.384;2023-05-10T07:44:02;8.30;;;3.10;;
3257;SDS011;1641;51.306;12.384;2023-05-10T07:46:28;5.97;;;2.90;;
3257;SDS011;1641;51.306;12.384;2023-05-10T07:48:54;4.82;;;2.67;;
3257;SDS011;1641;51.306;12.384;2023-05-10T07:51:19;4.38;;;2.83;;
3257;SDS011;1641;51.306;12.384;2023-05-10T07:53:44;6.82;;;2.92;;
3257;SDS011;1641;51.306;12.384;2023-05-10T07:56:22;3.63;;;3.33;;
3257;SDS011;1641;51.306;12.384;2023-05-10T07:58:48;6.07;;;4.03;;
3257;SDS011;1641;51.306;12.384;2023-05-10T08:01:13;5.72;;;3.42;;
3257;SDS011;1641;51.306;12.384;2023-05-10T08:03:41;4.05;;;2.72;;
3257;SDS011;1641;51.306;12.384;2023-05-10T08:06:14;4.80;;;3.30;;
3257;SDS011;1641;51.306;12.384;2023-05-10T08:08:40;4.70;;;3.00;;
3257;SDS011;1641;51.306;12.384;2023-05-10T08:11:09;4.38;;;3.47;;
3257;SDS011;1641;51.306;12.384;2023-05-10T08:13:40;3.17;;;2.88;;
3257;SDS011;1641;51.306;12.384;2023-05-10T08:16:09;4.55;;;3.63;;
3257;SDS011;1641;51.306;12.384;2023-05-10T08:18:37;4.13;;;3.00;;
3257;SDS011;1641;51.306;12.384;2023-05-10T08:21:09;5.55;;;3.40;;
3257;SDS011;1641;51.306;12.384;2023-05-10T08:23:42;5.85;;;3.80;;
3257;SDS011;1641;51.306;12.384;2023-05-10T08:26:12;3.78;;;3.35;;
3257;SDS011;1641;51.306;12.384;2023-05-10T08:28:53;7.05;;;3.58;;
3257;SDS011;1641;51.306;12.384;2023-05-10T08:31:18;3.80;;;3.13;;
3257;SDS011;1641;51.306;12.384;2023-05-10T08:33:47;6.90;;;3.10;;
3257;SDS011;1641;51.306;12.384;2023-05-10T08:36:15;4.63;;;2.83;;
3257;SDS011;1641;51.306;12.384;2023-05-10T08:38:49;8.45;;;5.30;;
3257;SDS011;1641;51.306;12.384;2023-05-10T08:41:16;4.35;;;3.22;;
3257;SDS011;1641;51.306;12.384;2023-05-10T08:43:45;6.30;;;3.35;;
3257;SDS011;1641;51.306;12.384;2023-05-10T08:46:12;5.45;;;3.67;;
3257;SDS011;1641;51.306;12.384;2023-05-10T08:48:42;5.68;;;3.15;;
3257;SDS011;1641;51.306;12.384;2023-05-10T08:51:09;4.38;;;3.42;;
3257;SDS011;1641;51.306;12.384;2023-05-10T08:53:45;5.43;;;3.80;;
3257;SDS011;1641;51.306;12.384;2023-05-10T08:56:10;7.68;;;3.88;;
3257;SDS011;1641;51.306;12.384;2023-05-10T08:58:36;5.38;;;3.58;;
3257;SDS011;1641;51.306;12.384;2023-05-10T09:01:03;6.30;;;3.80;;
3257;SDS011;1641;51.306;12.384;2023-05-10T09:03:28;4.50;;;3.63;;
3257;SDS011;1641;51.306;12.384;2023-05-10T09:05:55;7.43;;;4.60;;
3257;SDS011;1641;51.306;12.384;2023-05-10T09:08:23;5.43;;;3.97;;
3257;SDS011;1641;51.306;12.384;2023-05-10T09:10:53;5.55;;;4.05;;
3257;SDS011;1641;51.306;12.384;2023-05-10T09:13:19;5.63;;;4.32;;
3257;SDS011;1641;51.306;12.384;2023-05-10T09:15:46;5.32;;;4.03;;
3257;SDS011;1641;51.306;12.384;2023-05-10T09:18:12;8.05;;;4.93;;
3257;SDS011;1641;51.306;12.384;2023-05-10T09:20:38;6.00;;;4.70;;
3257;SDS011;1641;51.306;12.384;2023-05-10T09:23:03;7.30;;;4.82;;
3257;SDS011;1641;51.306;12.384;2023-05-10T09:25:28;7.40;;;5.18;;
3257;SDS011;1641;51.306;12.384;2023-05-10T09:27:53;6.93;;;5.10;;
3257;SDS011;1641;51.306;12.384;2023-05-10T09:30:24;7.43;;;5.15;;
3257;SDS011;1641;51.306;12.384;2023-05-10T09:32:53;7.32;;;6.03;;
3257;SDS011;1641;51.306;12.384;2023-05-10T09:35:20;7.22;;;5.32;;
3257;SDS011;1641;51.306;12.384;2023-05-10T09:37:48;7.50;;;5.80;;
3257;SDS011;1641;51.306;12.384;2023-05-10T09:40:18;5.70;;;5.15;;
3257;SDS011;1641;51.306;12.384;2023-05-10T09:42:56;9.98;;;6.05;;
3257;SDS011;1641;51.306;12.384;2023-05-10T09:45:25;7.70;;;5.78;;
3257;SDS011;1641;51.306;12.384;2023-05-10T09:47:53;7.20;;;5.32;;
3257;SDS011;1641;51.306;12.384;2023-05-10T09:50:19;8.23;;;6.10;;
3257;SDS011;1641;51.306;12.384;2023-05-10T09:55:18;7.65;;;6.28;;
3257;SDS011;1641;51.306;12.384;2023-05-10T09:57:45;7.82;;;5.78;;
3257;SDS011;1641;51.306;12.384;2023-05-10T10:00:16;14.57;;;6.93;;
3257;SDS011;1641;51.306;12.384;2023-05-10T10:02:42;5.60;;;4.95;;
3257;SDS011;1641;51.306;12.384;2023-05-10T10:05:09;12.10;;;9.32;;
3257;SDS011;1641;51.306;12.384;2023-05-10T10:07:36;6.82;;;6.13;;
3257;SDS011;1641;51.306;12.384;2023-05-10T10:10:02;5.88;;;5.28;;
3257;SDS011;1641;51.306;12.384;2023-05-10T10:12:28;7.43;;;5.57;;
3257;SDS011;1641;51.306;12.384;2023-05-10T10:14:54;9.93;;;6.38;;
3257;SDS011;1641;51.306;12.384;2023-05-10T10:17:20;6.50;;;5.90;;
3257;SDS011;1641;51.306;12.384;2023-05-10T10:19:46;6.43;;;5.78;;
3257;SDS011;1641;51.306;12.384;2023-05-10T10:22:13;8.75;;;6.47;;
3257;SDS011;1641;51.306;12.384;2023-05-10T10:24:38;6.47;;;5.78;;
3257;SDS011;1641;51.306;12.384;2023-05-10T10:27:15;6.95;;;6.28;;
3257;SDS011;1641;51.306;12.384;2023-05-10T10:29:50;8.35;;;6.65;;
3257;SDS011;1641;51.306;12.384;2023-05-10T10:32:38;7.80;;;6.93;;
3257;SDS011;1641;51.306;12.384;2023-05-10T10:35:13;13.95;;;7.60;;
3257;SDS011;1641;51.306;12.384;2023-05-10T10:37:44;7.50;;;5.90;;
3257;SDS011;1641;51.306;12.384;2023-05-10T10:40:23;6.72;;;6.13;;
3257;SDS011;1641;51.306;12.384;2023-05-10T10:42:50;8.07;;;6.63;;
3257;SDS011;1641;51.306;12.384;2023-05-10T10:45:16;8.75;;;6.35;;
3257;SDS011;1641;51.306;12.384;2023-05-10T10:47:41;7.30;;;6.50;;
3257;SDS011;1641;51.306;12.384;2023-05-10T10:50:08;6.55;;;5.93;;
3257;SDS011;1641;51.306;12.384;2023-05-10T10:52:35;7.13;;;6.40;;
3257;SDS011;1641;51.306;12.384;2023-05-10T10:55:05;8.98;;;6.32;;
3257;SDS011;1641;51.306;12.384;2023-05-10T11:00:26;10.15;;;6.47;;
3257;SDS011;1641;51.306;12.384;2023-05-10T11:03:08;7.55;;;6.60;;
3257;SDS011;1641;51.306;12.384;2023-05-10T11:08:12;9.00;;;7.55;;
3257;SDS011;1641;51.306;12.384;2023-05-10T11:10:48;7.97;;;7.00;;
3257;SDS011;1641;51.306;12.384;2023-05-10T11:13:16;7.65;;;6.53;;
3257;SDS011;1641;51.306;12.384;2023-05-10T11:15:53;6.68;;;6.07;;
3257;SDS011;1641;51.306;12.384;2023-05-10T11:18:19;12.27;;;7.38;;
3257;SDS011;1641;51.306;12.384;2023-05-10T11:20:49;14.75;;;7.68;;
3257;SDS011;1641;51.306;12.384;2023-05-10T11:23:22;8.50;;;7.60;;
3257;SDS011;1641;51.306;12.384;2023-05-10T11:25:49;7.72;;;6.93;;
3257;SDS011;1641;51.306;12.384;2023-05-10T11:28:16;9.93;;;7.63;;
3257;SDS011;1641;51.306;12.384;2023-05-10T11:30:43;9.20;;;6.97;;
3257;SDS011;1641;51.306;12.384;2023-05-10T11:33:09;9.15;;;7.13;;
3257;SDS011;1641;51.306;12.384;2023-05-10T11:35:40;8.27;;;6.23;;
3257;SDS011;1641;51.306;12.384;2023-05-10T11:38:06;9.38;;;7.25;;
3257;SDS011;1641;51.306;12.384;2023-05-10T11:40:32;10.52;;;8.13;;
3257;SDS011;1641;51.306;12.384;2023-05-10T11:42:57;8.40;;;7.43;;
3257;SDS011;1641;51.306;12.384;2023-05-10T11:45:25;7.93;;;6.55;;
3257;SDS011;1641;51.306;12.384;2023-05-10T11:47:51;8.07;;;7.28;;
3257;SDS011;1641;51.306;12.384;2023-05-10T11:50:17;10.88;;;7.20;;
3257;SDS011;1641;51.306;12.384;2023-05-10T11:52:42;9.27;;;7.50;;
3257;SDS011;1641;51.306;12.384;2023-05-10T11:55:08;10.05;;;7.35;;
3257;SDS011;1641;51.306;12.384;2023-05-10T11:57:33;8.10;;;7.28;;
3257;SDS011;1641;51.306;12.384;2023-05-10T11:59:59;8.65;;;6.50;;
3257;SDS011;1641;51.306;12.384;2023-05-10T12:02:25;7.70;;;6.82;;
3257;SDS011;1641;51.306;12.384;2023-05-10T12:04:50;8.40;;;7.07;;
3257;SDS011;1641;51.306;12.384;2023-05-10T12:07:16;9.63;;;7.30;;
3257;SDS011;1641;51.306;12.384;2023-05-10T12:09:43;7.68;;;6.60;;
3257;SDS011;1641;51.306;12.384;2023-05-10T12:12:09;8.77;;;6.68;;
3257;SDS011;1641;51.306;12.384;2023-05-10T12:14:35;8.00;;;6.65;;
3257;SDS011;1641;51.306;12.384;2023-05-10T12:17:00;8.20;;;7.40;;
3257;SDS011;1641;51.306;12.384;2023-05-10T12:19:25;9.88;;;6.65;;
3257;SDS011;1641;51.306;12.384;2023-05-10T12:21:51;8.25;;;7.03;;
3257;SDS011;1641;51.306;12.384;2023-05-10T12:24:16;13.57;;;7.25;;
3257;SDS011;1641;51.306;12.384;2023-05-10T12:26:43;7.68;;;6.85;;
3257;SDS011;1641;51.306;12.384;2023-05-10T12:29:13;12.85;;;7.72;;
3257;SDS011;1641;51.306;12.384;2023-05-10T12:31:50;8.50;;;6.65;;
3257;SDS011;1641;51.306;12.384;2023-05-10T12:34:32;12.82;;;7.68;;
3257;SDS011;1641;51.306;12.384;2023-05-10T12:36:59;7.95;;;6.95;;
3257;SDS011;1641;51.306;12.384;2023-05-10T12:39:25;7.57;;;6.75;;
3257;SDS011;1641;51.306;12.384;2023-05-10T12:41:50;7.75;;;6.97;;
3257;SDS011;1641;51.306;12.384;2023-05-10T12:44:16;9.05;;;8.15;;
3257;SDS011;1641;51.306;12.384;2023-05-10T12:46:47;8.00;;;7.20;;
3257;SDS011;1641;51.306;12.384;2023-05-10T12:49:13;11.77;;;6.40;;
3257;SDS011;1641;51.306;12.384;2023-05-10T12:51:38;6.15;;;5.57;;
3257;SDS011;1641;51.306;12.384;2023-05-10T12:54:09;6.30;;;5.65;;
3257;SDS011;1641;51.306;12.384;2023-05-10T12:56:34;5.35;;;4.85;;
3257;SDS011;1641;51.306;12.384;2023-05-10T12:59:00;5.75;;;5.25;;
3257;SDS011;1641;51.306;12.384;2023-05-10T13:01:25;5.95;;;5.35;;
3257;SDS011;1641;51.306;12.384;2023-05-10T13:03:50;7.28;;;5.45;;
3257;SDS011;1641;51.306;12.384;2023-05-10T13:06:22;6.22;;;5.03;;
3257;SDS011;1641;51.306;12.384;2023-05-10T13:11:16;5.72;;;4.20;;
3257;SDS011;1641;51.306;12.384;2023-05-10T13:13:42;4.95;;;4.43;;
3257;SDS011;1641;51.306;12.384;2023-05-10T13:16:07;6.55;;;4.85;;
3257;SDS011;1641;51.306;12.384;2023-05-10T13:18:32;4.72;;;4.22;;
3257;SDS011;1641;51.306;12.384;2023-05-10T13:20:58;5.15;;;4.10;;
3257;SDS011;1641;51.306;12.384;2023-05-10T13:23:23;4.93;;;3.97;;
3257;SDS011;1641;51.306;12.384;2023-05-10T13:25:48;5.15;;;3.85;;
3257;SDS011;1641;51.306;12.384;2023-05-10T13:28:26;4.63;;;4.20;;
3257;SDS011;1641;51.306;12.384;2023-05-10T13:30:51;4.43;;;4.03;;
3257;SDS011;1641;51.306;12.384;2023-05-10T13:33:16;4.18;;;3.78;;
3257;SDS011;1641;51.306;12.384;2023-05-10T13:35:54;5.13;;;4.07;;
3257;SDS011;1641;51.306;12.384;2023-05-10T13:38:19;4.75;;;4.32;;
3257;SDS011;1641;51.306;12.384;2023-05-10T13:40:47;4.00;;;3.58;;
3257;SDS011;1641;51.306;12.384;2023-05-10T13:43:13;3.83;;;3.40;;
3257;SDS011;1641;51.306;12.384;2023-05-10T13:45:38;4.65;;;3.92;;
3257;SDS011;1641;51.306;12.384;2023-05-10T13:48:04;4.60;;;4.07;;
3257;SDS011;1641;51.306;12.384;2023-05-10T13:50:29;4.10;;;3.70;;
3257;SDS011;1641;51.306;12.384;2023-05-10T13:52:54;4.30;;;3.90;;
3257;SDS011;1641;51.306;12.384;2023-05-10T13:55:32;4.45;;;3.78;;
3257;SDS011;1641;51.306;12.384;2023-05-10T13:57:58;5.22;;;4.13;;
3257;SDS011;1641;51.306;12.384;2023-05-10T14:00:24;5.38;;;4.80;;
3257;SDS011;1641;51.306;12.384;2023-05-10T14:02:49;4.50;;;4.10;;
3257;SDS011;1641;51.306;12.384;2023-05-10T14:05:14;5.00;;;4.30;;
3257;SDS011;1641;51.306;12.384;2023-05-10T14:07:39;4.95;;;4.47;;
3257;SDS011;1641;51.306;12.384;2023-05-10T14:10:05;5.90;;;4.72;;
3257;SDS011;1641;51.306;12.384;2023-05-10T14:12:31;5.28;;;4.78;;
3257;SDS011;1641;51.306;12.384;2023-05-10T14:14:59;5.43;;;4.93;;
3257;SDS011;1641;51.306;12.384;2023-05-10T14:17:24;5.90;;;5.07;;
3257;SDS011;1641;51.306;12.384;2023-05-10T14:19:49;5.35;;;4.68;;
3257;SDS011;1641;51.306;12.384;2023-05-10T14:22:15;10.20;;;7.00;;
3257;SDS011;1641;51.306;12.384;2023-05-10T14:24:40;5.10;;;4.70;;
3257;SDS011;1641;51.306;12.384;2023-05-10T14:27:08;8.20;;;5.30;;
3257;SDS011;1641;51.306;12.384;2023-05-10T14:29:34;6.28;;;5.22;;
3257;SDS011;1641;51.306;12.384;2023-05-10T14:31:59;6.75;;;5.82;;
3257;SDS011;1641;51.306;12.384;2023-05-10T14:34:24;6.80;;;6.07;;
3257;SDS011;1641;51.306;12.384;2023-05-10T14:36:49;9.00;;;5.40;;
3257;SDS011;1641;51.306;12.384;2023-05-10T14:39:15;7.07;;;5.97;;
3257;SDS011;1641;51.306;12.384;2023-05-10T14:41:58;10.05;;;7.18;;
3257;SDS011;1641;51.306;12.384;2023-05-10T14:44:27;6.80;;;5.68;;
3257;SDS011;1641;51.306;12.384;2023-05-10T14:46:52;7.25;;;5.00;;
3257;SDS011;1641;51.306;12.384;2023-05-10T14:49:17;14.85;;;8.18;;
3257;SDS011;1641;51.306;12.384;2023-05-10T14:51:43;6.57;;;3.83;;
3257;SDS011;1641;51.306;12.384;2023-05-10T14:54:09;3.10;;;2.55;;
3257;SDS011;1641;51.306;12.384;2023-05-10T14:56:38;5.32;;;4.25;;
3257;SDS011;1641;51.306;12.384;2023-05-10T14:59:11;2.40;;;2.20;;
3257;SDS011;1641;51.306;12.384;2023-05-10T15:01:49;2.33;;;1.70;;
3257;SDS011;1641;51.306;12.384;2023-05-10T15:04:23;3.17;;;2.42;;
3257;SDS011;1641;51.306;12.384;2023-05-10T15:06:48;2.75;;;1.88;;
3257;SDS011;1641;51.306;12.384;2023-05-10T15:09:15;2.35;;;1.70;;
3257;SDS011;1641;51.306;12.384;2023-05-10T15:11:45;4.75;;;2.10;;
3257;SDS011;1641;51.306;12.384;2023-05-10T15:14:10;2.97;;;1.83;;
3257;SDS011;1641;51.306;12.384;2023-05-10T15:16:40;4.55;;;1.42;;
3257;SDS011;1641;51.306;12.384;2023-05-10T15:19:11;4.57;;;2.13;;
3257;SDS011;1641;51.306;12.384;2023-05-10T15:21:36;3.22;;;2.25;;